Impacts METAR Board INFO
IDs:

KEWR - Newark Intl, NJ, US

Updated at: 2016 UTC 18 Dec 2017
Potential Impact None Slight Moderate High
Time18/08Z 18/09Z 18/10Z 18/11Z 18/12Z 18/13Z 18/14Z 18/15Z 18/16Z 18/17Z 18/18Z 18/19Z 18/20Z
VIS5 9 10 10 10 10 9 9 9 7 8 9 9
CIG28 60 12 14 12 10 9 9 8 75 75 70 250
CoverOVCOVCOVCOVCOVCOVCOVCOVCOVCBKNBKNBKNBKN
FltCatMVFRVFRMVFRMVFRMVFRMVFRIFRIFRIFRVFRVFRVFRVFR
WX-RA -PL-RA -SN----------------------
WDir603010201020203502036002700
WSpd6 4 6 5 6 7 5 6 4 5 4 4 0
WGst-- -- -- -- -- -- -- -- -- -- -- -- --
Raw hourly METARs
KEWR 180759Z 06006KT 5SM -RAPL SCT016 BKN028 OVC050 02/M01 A3017 RMK AO2 PLB59 P0000 T00171011
KEWR 180851Z 03004KT 9SM -RASN FEW014 SCT025 OVC060 02/M01 A3014 RMK AO2 PLB0759E18SNB41 SLP207 P0001 60004 T00171006 58016
KEWR 180951Z 01006KT 10SM OVC012 01/M01 A3015 RMK AO2 RAE42SNE05 SLP208 P0000 T00111006
KEWR 181051Z 02005KT 10SM OVC014 01/M02 A3014 RMK AO2 SLP205 T00111017
KEWR 181151Z 01006KT 10SM BKN012 BKN020 OVC075 01/M02 A3013 RMK AO2 SLP203 CIG 010V015 931000 60004 70004 T00111017 10028 20011 58004
KEWR 181251Z 02007KT 10SM BKN010 OVC075 01/M01 A3012 RMK AO2 SLP199 T00111011
KEWR 181351Z 02005KT 9SM OVC009 02/M01 A3011 RMK AO2 SLP196 T00221006
KEWR 181451Z 35006KT 9SM OVC009 03/00 A3011 RMK AO2 SLP195 T00330000 56008
KEWR 181551Z 02004KT 9SM OVC008 04/00 A3008 RMK AO2 SLP186 T00390000
KEWR 181700Z 36005KT 7SM SCT008 BKN075 06/02 A3005 RMK AO2 T00610017
KEWR 181751Z VRB04KT 8SM SCT008 BKN075 08/02 A3002 RMK AO2 SLP164 T00780022 10078 20011 58031
KEWR 181851Z 27004KT 9SM FEW020 BKN070 BKN250 08/02 A2998 RMK AO2 SLP150 T00830017
KEWR 181951Z 00000KT 9SM SCT070 BKN250 09/01 A2997 RMK AO2 SLP149 T00890011